createdAt,value
2023-05-20T00:01:20.283Z,72.99
2023-05-20T00:03:47.827Z,71.68
2023-05-20T00:06:15.555Z,73.11
2023-05-20T00:08:43.000Z,72.58
2023-05-20T00:11:10.602Z,72.69
2023-05-20T00:13:39.031Z,73.73
2023-05-20T00:16:07.948Z,74.17
2023-05-20T00:18:35.463Z,74.64
2023-05-20T00:21:02.928Z,74.16
2023-05-20T00:23:30.379Z,75.57
2023-05-20T00:26:00.439Z,76.86
2023-05-20T00:28:28.221Z,75.43
2023-05-20T00:30:55.863Z,77.09
2023-05-20T00:33:24.743Z,76.04
2023-05-20T00:35:52.203Z,76.58
2023-05-20T00:38:19.665Z,75.56
2023-05-20T00:40:47.128Z,74.61
2023-05-20T00:43:14.554Z,77.07
2023-05-20T00:45:42.467Z,77.52
2023-05-20T00:48:10.185Z,76.69
2023-05-20T00:50:39.085Z,76.04
2023-05-20T00:53:07.533Z,76.27
2023-05-20T00:55:35.882Z,78.93
2023-05-20T00:58:03.570Z,76.89
2023-05-20T01:00:31.186Z,75.84
2023-05-20T01:02:59.377Z,78.21
2023-05-20T01:05:27.053Z,79.69
2023-05-20T01:07:56.001Z,80.58
2023-05-20T01:10:25.281Z,80.19
2023-05-20T01:13:02.270Z,79.95
2023-05-20T01:15:31.144Z,81.32
2023-05-20T01:18:02.236Z,80.19
2023-05-20T01:20:32.382Z,79.84
2023-05-20T01:23:01.377Z,79.35
2023-05-20T01:25:29.016Z,81.28
2023-05-20T01:27:58.662Z,80.07
2023-05-20T01:30:30.498Z,77.99
2023-05-20T01:33:02.325Z,80.77
2023-05-20T01:35:30.816Z,77.98
2023-05-20T01:37:59.748Z,80.14
2023-05-20T01:40:29.152Z,81.64
2023-05-20T01:42:58.934Z,80.36
2023-05-20T01:45:26.935Z,79.27
2023-05-20T01:47:54.642Z,79.61
2023-05-20T01:50:22.319Z,77.91
2023-05-20T01:52:49.787Z,77.64
2023-05-20T01:55:17.306Z,78.94
2023-05-20T01:57:46.214Z,77.01
2023-05-20T02:00:14.289Z,77.22
2023-05-20T02:02:41.856Z,78.69
2023-05-20T02:05:10.354Z,79.91
2023-05-20T02:07:37.857Z,81.59
2023-05-20T02:10:06.117Z,82.90
2023-05-20T02:12:33.580Z,82.82
2023-05-20T02:15:02.654Z,80.53
2023-05-20T02:17:30.159Z,80.70
2023-05-20T02:19:57.612Z,80.88
2023-05-20T02:22:25.030Z,78.20
2023-05-20T02:24:52.464Z,80.09
2023-05-20T02:27:19.907Z,78.68
2023-05-20T02:29:47.361Z,81.19
2023-05-20T02:32:16.551Z,79.99
2023-05-20T02:34:43.990Z,80.53
2023-05-20T02:37:11.442Z,80.54
2023-05-20T02:39:38.875Z,82.10
2023-05-20T02:42:06.530Z,81.02
2023-05-20T02:44:33.966Z,79.45
2023-05-20T02:47:01.399Z,80.04
2023-05-20T02:49:30.164Z,78.33
2023-05-20T02:51:57.637Z,77.16
2023-05-20T02:54:25.059Z,77.93
2023-05-20T02:56:52.497Z,79.59
2023-05-20T02:59:19.886Z,77.69
2023-05-20T03:01:47.396Z,78.83
2023-05-20T03:04:14.958Z,78.71
2023-05-20T03:06:44.506Z,81.11
2023-05-20T03:09:12.116Z,78.53
2023-05-20T03:11:39.538Z,77.39
2023-05-20T03:14:06.972Z,79.33
2023-05-20T03:16:35.414Z,77.93
2023-05-20T03:19:03.040Z,78.18
2023-05-20T03:21:30.533Z,81.13
2023-05-20T03:23:59.304Z,79.83
2023-05-20T03:26:26.849Z,79.33
2023-05-20T03:28:54.294Z,77.47
2023-05-20T03:31:21.757Z,77.28
2023-05-20T03:33:49.266Z,81.68
2023-05-20T03:36:16.756Z,79.83
2023-05-20T03:38:44.186Z,79.96
2023-05-20T03:41:13.034Z,80.13
2023-05-20T03:43:40.611Z,82.94
2023-05-20T03:46:08.087Z,82.56
2023-05-20T03:48:35.642Z,82.21
2023-05-20T03:51:03.476Z,83.88
2023-05-20T03:53:30.989Z,81.59
2023-05-20T03:55:58.447Z,82.21
2023-05-20T03:58:29.205Z,80.96
2023-05-20T04:00:56.953Z,82.25
2023-05-20T04:03:24.614Z,82.58
2023-05-20T04:05:52.163Z,85.71
2023-05-20T04:08:19.833Z,83.62
2023-05-20T04:10:47.325Z,84.91
2023-05-20T04:13:15.022Z,81.13
2023-05-20T04:15:44.293Z,84.09
2023-05-20T04:18:12.056Z,83.21
2023-05-20T04:20:41.326Z,82.98
2023-05-20T04:23:08.833Z,82.12
2023-05-20T04:25:37.016Z,82.25
2023-05-20T04:28:04.888Z,83.71
2023-05-20T04:30:33.430Z,82.18
2023-05-20T04:33:03.571Z,85.37
2023-05-20T04:35:31.461Z,86.84
2023-05-20T04:37:59.328Z,85.71
2023-05-20T04:40:27.447Z,87.93
2023-05-20T04:42:55.832Z,87.77
2023-05-20T04:45:23.951Z,86.83
2023-05-20T04:47:53.215Z,84.74
2023-05-20T04:50:22.251Z,83.96
2023-05-20T04:52:50.671Z,85.39
2023-05-20T04:55:18.561Z,86.11
2023-05-20T04:57:46.467Z,84.91
2023-05-20T05:00:14.687Z,86.74
2023-05-20T05:02:42.213Z,85.72
2023-05-20T05:05:10.019Z,87.41
2023-05-20T05:07:39.757Z,83.44
2023-05-20T05:10:07.980Z,87.70
2023-05-20T05:12:35.502Z,89.65
2023-05-20T05:15:02.924Z,86.32
2023-05-20T05:17:30.449Z,87.24
2023-05-20T05:19:58.013Z,88.58
2023-05-20T05:22:25.435Z,84.64
2023-05-20T05:24:55.695Z,86.76
2023-05-20T05:27:23.845Z,86.85
2023-05-20T05:29:51.251Z,87.74
2023-05-20T05:32:18.768Z,87.22
2023-05-20T05:34:46.692Z,88.23
2023-05-20T05:37:14.141Z,90.08
2023-05-20T05:39:41.664Z,86.42
2023-05-20T05:42:10.464Z,84.00
2023-05-20T05:44:37.902Z,85.98
2023-05-20T05:47:06.729Z,85.44
2023-05-20T05:49:34.570Z,86.85
2023-05-20T05:52:02.054Z,89.37
2023-05-20T05:54:29.541Z,90.97
2023-05-20T05:56:57.426Z,90.37
2023-05-20T05:59:26.266Z,87.81
2023-05-20T06:01:53.766Z,87.39
2023-05-20T06:04:21.358Z,85.28
2023-05-20T06:06:49.352Z,86.57
2023-05-20T06:09:16.794Z,87.26
2023-05-20T06:11:44.450Z,88.23
2023-05-20T06:14:11.936Z,86.29
2023-05-20T06:16:40.761Z,84.04
2023-05-20T06:19:09.500Z,87.51
2023-05-20T06:21:37.289Z,90.10
2023-05-20T06:24:05.064Z,88.38
2023-05-20T06:26:32.605Z,90.06
2023-05-20T06:29:00.021Z,90.67
2023-05-20T06:31:27.611Z,87.80
2023-05-20T06:33:56.801Z,88.67
2023-05-20T06:36:24.249Z,87.71
2023-05-20T06:38:51.696Z,89.21
2023-05-20T06:41:19.102Z,86.71
2023-05-20T06:43:47.518Z,87.32
2023-05-20T06:46:15.089Z,87.27
2023-05-20T06:48:42.586Z,89.90
2023-05-20T06:51:11.367Z,88.63
2023-05-20T06:53:38.809Z,88.94
2023-05-20T06:56:06.898Z,88.82
2023-05-20T06:58:34.363Z,87.52
2023-05-20T07:01:01.892Z,86.83
2023-05-20T07:03:30.437Z,86.70
2023-05-20T07:05:57.918Z,85.70
2023-05-20T07:08:26.707Z,85.64
2023-05-20T07:10:56.491Z,83.80
2023-05-20T07:13:24.236Z,83.22
2023-05-20T07:15:51.706Z,82.78
2023-05-20T07:18:19.826Z,85.25
2023-05-20T07:20:47.307Z,86.57
2023-05-20T07:23:15.851Z,86.87
2023-05-20T07:25:44.732Z,82.27
2023-05-20T07:28:12.210Z,81.36
2023-05-20T07:30:39.677Z,82.78
2023-05-20T07:33:07.161Z,84.25
2023-05-20T07:35:34.857Z,85.07
2023-05-20T07:38:02.437Z,82.78
2023-05-20T07:40:29.852Z,84.81
2023-05-20T07:42:58.696Z,81.77
2023-05-20T07:45:26.171Z,79.89
2023-05-20T07:47:53.782Z,80.56
2023-05-20T07:50:21.507Z,81.12
2023-05-20T07:52:56.582Z,81.12
2023-05-20T07:55:26.346Z,83.03
2023-05-20T07:57:53.874Z,81.73
2023-05-20T08:00:23.062Z,81.88
2023-05-20T08:02:50.785Z,82.50
2023-05-20T08:05:18.560Z,81.01
2023-05-20T08:07:46.043Z,80.02
2023-05-20T08:10:13.486Z,81.58
2023-05-20T08:12:41.185Z,80.60
2023-05-20T08:15:09.552Z,81.52
2023-05-20T08:17:38.848Z,79.90
2023-05-20T08:20:08.091Z,79.49
2023-05-20T08:22:36.102Z,81.73
2023-05-20T08:25:04.072Z,77.32
2023-05-20T08:27:31.558Z,79.03
2023-05-20T08:30:00.583Z,80.37
2023-05-20T08:32:28.518Z,81.20
2023-05-20T08:34:57.300Z,79.54
2023-05-20T08:37:24.754Z,79.24
2023-05-20T08:39:52.181Z,77.97
2023-05-20T08:42:22.727Z,77.03
2023-05-20T08:44:51.889Z,75.55
2023-05-20T08:47:20.956Z,76.95
2023-05-20T08:49:48.778Z,76.33
2023-05-20T08:52:19.111Z,75.58
2023-05-20T08:54:51.545Z,75.55
2023-05-20T08:57:20.370Z,75.07
2023-05-20T08:59:48.199Z,76.48
2023-05-20T09:02:16.368Z,76.24
2023-05-20T09:04:44.001Z,77.45
2023-05-20T09:07:11.498Z,76.41
2023-05-20T09:09:41.244Z,77.49
2023-05-20T09:12:08.825Z,76.04
2023-05-20T09:14:36.416Z,75.30
2023-05-20T09:17:05.626Z,75.34
2023-05-20T09:19:34.493Z,75.92
2023-05-20T09:22:05.092Z,76.05
2023-05-20T09:24:32.728Z,76.82
2023-05-20T09:27:01.653Z,77.34
2023-05-20T09:29:29.172Z,76.73
2023-05-20T09:31:57.183Z,77.26
2023-05-20T09:34:24.754Z,76.49
2023-05-20T09:36:52.346Z,77.58
2023-05-20T09:39:30.766Z,75.01
2023-05-20T09:42:07.809Z,78.22
2023-05-20T09:44:36.480Z,78.81
2023-05-20T09:47:04.986Z,77.05
2023-05-20T09:49:33.989Z,75.44
2023-05-20T09:52:03.609Z,73.56
2023-05-20T09:54:33.322Z,76.07
2023-05-20T09:57:01.589Z,76.19
2023-05-20T09:59:32.464Z,76.42
2023-05-20T10:02:00.056Z,76.46
2023-05-20T10:04:29.331Z,75.02
2023-05-20T10:07:37.923Z,72.64
2023-05-20T10:10:21.593Z,70.99
2023-05-20T10:12:56.661Z,74.17
2023-05-20T10:15:30.106Z,75.59
2023-05-20T10:18:08.908Z,77.18
2023-05-20T10:20:46.229Z,76.01
2023-05-20T10:23:21.944Z,76.85
2023-05-20T10:25:53.255Z,77.21
2023-05-20T10:28:30.398Z,76.77
2023-05-20T10:30:59.729Z,75.73
2023-05-20T10:33:28.390Z,74.24
2023-05-20T10:35:58.933Z,76.53
2023-05-20T10:38:26.838Z,76.04
2023-05-20T10:40:54.310Z,75.79
2023-05-20T10:43:27.607Z,73.80
2023-05-20T10:45:57.624Z,73.64
2023-05-20T10:48:28.481Z,75.45
2023-05-20T10:50:58.041Z,75.69
2023-05-20T10:53:34.204Z,74.59
2023-05-20T10:56:02.416Z,76.02
2023-05-20T10:58:38.502Z,74.50
2023-05-20T11:01:06.193Z,75.41
2023-05-20T11:03:36.320Z,72.35
2023-05-20T11:06:12.407Z,71.91
2023-05-20T11:08:40.117Z,73.20
2023-05-20T11:11:08.138Z,73.49
2023-05-20T11:13:35.670Z,73.18
2023-05-20T11:16:04.809Z,74.28
2023-05-20T11:18:33.413Z,73.09
2023-05-20T11:21:03.291Z,71.32
2023-05-20T11:23:31.481Z,71.70
2023-05-20T11:25:59.309Z,72.94
2023-05-20T11:28:26.796Z,69.92
2023-05-20T11:30:54.607Z,70.89
2023-05-20T11:33:22.858Z,69.48
2023-05-20T11:35:53.198Z,69.49
2023-05-20T11:38:22.696Z,67.17
2023-05-20T11:40:53.742Z,67.47
2023-05-20T11:43:22.841Z,68.00
2023-05-20T11:45:55.219Z,68.02
2023-05-20T11:48:23.006Z,68.15
2023-05-20T11:50:50.511Z,69.38
2023-05-20T11:53:19.362Z,70.44
2023-05-20T11:55:50.052Z,68.96
2023-05-20T11:58:19.331Z,67.38
2023-05-20T12:00:52.826Z,67.73
2023-05-20T12:03:22.835Z,69.78
2023-05-20T12:05:51.234Z,68.54
2023-05-20T12:08:18.880Z,67.78
2023-05-20T12:10:47.986Z,68.94
2023-05-20T12:13:15.840Z,68.46
2023-05-20T12:15:43.422Z,65.43
2023-05-20T12:18:11.294Z,68.30
2023-05-20T12:20:40.153Z,68.69
2023-05-20T12:23:07.632Z,68.18
2023-05-20T12:25:35.125Z,69.05
2023-05-20T12:28:04.225Z,68.19
2023-05-20T12:30:32.012Z,68.73
2023-05-20T12:32:59.467Z,67.43
2023-05-20T12:35:38.934Z,67.46
2023-05-20T12:38:07.115Z,67.64
2023-05-20T12:40:35.757Z,68.58
2023-05-20T12:43:05.990Z,68.64
2023-05-20T12:45:33.761Z,68.82
2023-05-20T12:48:01.752Z,69.33
2023-05-20T12:50:29.705Z,69.55
2023-05-20T12:52:57.154Z,70.15
2023-05-20T12:55:24.602Z,70.40
2023-05-20T12:57:52.225Z,71.07
2023-05-20T13:00:20.981Z,71.75
2023-05-20T13:02:48.661Z,71.61
2023-05-20T13:05:16.393Z,70.89
2023-05-20T13:07:43.854Z,72.10
2023-05-20T13:10:12.151Z,69.91
2023-05-20T13:12:40.387Z,70.37
2023-05-20T13:15:09.060Z,69.14
2023-05-20T13:17:38.193Z,68.99
2023-05-20T13:20:06.641Z,69.25
2023-05-20T13:22:34.118Z,69.94
2023-05-20T13:25:01.682Z,70.65
2023-05-20T13:27:29.233Z,70.35
2023-05-20T13:29:56.741Z,70.72
2023-05-20T13:32:24.464Z,69.52
2023-05-20T13:34:53.259Z,68.95
2023-05-20T13:37:20.979Z,68.66
2023-05-20T13:39:49.471Z,71.44
2023-05-20T13:42:16.984Z,69.55
2023-05-20T13:44:44.419Z,70.39
2023-05-20T13:47:11.838Z,68.50
2023-05-20T13:49:39.286Z,68.20
2023-05-20T13:52:08.330Z,69.19
2023-05-20T13:54:36.001Z,67.86
2023-05-20T13:57:07.730Z,68.93
2023-05-20T13:59:35.663Z,68.10
2023-05-20T14:02:03.396Z,68.22
2023-05-20T14:04:31.544Z,67.88
2023-05-20T14:07:00.327Z,67.39
2023-05-20T14:09:29.158Z,67.67
2023-05-20T14:11:56.704Z,68.27
2023-05-20T14:14:24.147Z,67.91
2023-05-20T14:16:51.668Z,68.58
2023-05-20T14:19:19.240Z,66.16
2023-05-20T14:21:46.869Z,67.92
2023-05-20T14:24:14.320Z,67.98
2023-05-20T14:26:43.081Z,67.61
2023-05-20T14:29:10.784Z,67.08
2023-05-20T14:31:38.689Z,66.26
2023-05-20T14:34:06.142Z,67.34
2023-05-20T14:36:33.600Z,67.98
2023-05-20T14:39:01.049Z,68.38
2023-05-20T14:41:28.801Z,68.34
2023-05-20T14:43:57.723Z,68.97
2023-05-20T14:46:25.258Z,69.00
2023-05-20T14:48:52.717Z,68.83
2023-05-20T14:51:20.168Z,68.37
2023-05-20T14:53:47.716Z,68.68
2023-05-20T14:56:15.180Z,68.73
2023-05-20T14:58:42.687Z,67.70
2023-05-20T15:01:11.519Z,69.28
2023-05-20T15:03:39.324Z,68.87
2023-05-20T15:06:07.079Z,68.87
2023-05-20T15:08:34.517Z,67.87
2023-05-20T15:11:02.039Z,68.43
2023-05-20T15:13:29.525Z,67.35
2023-05-20T15:15:56.949Z,67.12
2023-05-20T15:18:25.787Z,66.46
2023-05-20T15:20:53.282Z,68.13
2023-05-20T15:23:20.740Z,68.32
2023-05-20T15:25:48.541Z,68.16
2023-05-20T15:28:19.504Z,68.82
2023-05-20T15:30:47.214Z,68.69
2023-05-20T15:33:14.808Z,68.28
2023-05-20T15:35:43.699Z,67.90
2023-05-20T15:38:11.180Z,67.60
2023-05-20T15:40:39.538Z,66.51
2023-05-20T15:43:07.098Z,66.03
2023-05-20T15:45:34.942Z,66.02
2023-05-20T15:48:02.487Z,65.74
2023-05-20T15:50:30.076Z,66.84
2023-05-20T15:52:58.868Z,67.41
2023-05-20T15:55:26.587Z,67.69
2023-05-20T15:57:54.259Z,67.75
2023-05-20T16:00:22.804Z,67.46
2023-05-20T16:02:50.595Z,67.96
2023-05-20T16:05:18.306Z,66.42
2023-05-20T16:07:46.670Z,67.18
2023-05-20T16:10:15.510Z,67.17
2023-05-20T16:12:42.982Z,67.25
2023-05-20T16:15:11.373Z,66.99
2023-05-20T16:17:39.237Z,67.51
2023-05-20T16:20:08.090Z,68.13
2023-05-20T16:22:35.781Z,68.36
2023-05-20T16:25:03.333Z,68.72
2023-05-20T16:27:32.863Z,67.46
2023-05-20T16:30:00.514Z,68.35
2023-05-20T16:32:28.104Z,67.40
2023-05-20T16:34:55.623Z,68.03
2023-05-20T16:37:23.086Z,69.22
2023-05-20T16:39:50.555Z,69.31
2023-05-20T16:42:18.132Z,67.76
2023-05-20T16:44:47.189Z,68.28
2023-05-20T16:47:14.632Z,67.65
2023-05-20T16:49:42.101Z,67.72
2023-05-20T16:52:09.638Z,67.86
2023-05-20T16:54:37.104Z,66.92
2023-05-20T16:57:05.568Z,67.36
2023-05-20T16:59:34.873Z,68.39
2023-05-20T17:02:03.747Z,68.25
2023-05-20T17:04:31.368Z,68.06
2023-05-20T17:07:01.625Z,67.88
2023-05-20T17:09:29.573Z,68.86
2023-05-20T17:11:57.039Z,68.25
2023-05-20T17:14:24.722Z,67.35
2023-05-20T17:16:52.316Z,67.23
2023-05-20T17:19:21.549Z,66.99
2023-05-20T17:21:48.988Z,67.95
2023-05-20T17:24:16.581Z,68.52
2023-05-20T17:26:44.112Z,68.06
2023-05-20T17:29:11.591Z,67.34
2023-05-20T17:31:38.994Z,67.58
2023-05-20T17:34:06.540Z,68.00
2023-05-20T17:36:35.502Z,68.74
2023-05-20T17:39:04.422Z,67.72
2023-05-20T17:41:31.894Z,67.56
2023-05-20T17:43:59.471Z,68.27
2023-05-20T17:46:26.941Z,67.76
2023-05-20T17:48:54.455Z,66.53
2023-05-20T17:51:21.902Z,65.28
2023-05-20T17:53:50.809Z,66.83
2023-05-20T17:56:18.269Z,67.13
2023-05-20T17:58:46.884Z,67.95
2023-05-20T18:01:15.018Z,67.85
2023-05-20T18:03:42.665Z,69.06
2023-05-20T18:06:10.485Z,68.76
2023-05-20T18:08:38.077Z,67.45
2023-05-20T18:11:06.957Z,68.12
2023-05-20T18:13:34.450Z,67.65
2023-05-20T18:16:01.977Z,66.92
2023-05-20T18:18:29.477Z,68.75
2023-05-20T18:20:56.924Z,67.16
2023-05-20T18:23:24.405Z,68.03
2023-05-20T18:25:51.883Z,67.48
2023-05-20T18:28:20.675Z,68.14
2023-05-20T18:30:48.125Z,68.17
2023-05-20T18:33:15.853Z,68.41
2023-05-20T18:35:43.409Z,68.93
2023-05-20T18:38:10.960Z,66.73
2023-05-20T18:40:38.465Z,66.81
2023-05-20T18:43:06.178Z,68.38
2023-05-20T18:45:35.085Z,67.09
2023-05-20T18:48:02.727Z,69.27
2023-05-20T18:50:30.562Z,68.62
2023-05-20T18:52:58.258Z,66.89
2023-05-20T18:55:26.303Z,66.47
2023-05-20T18:57:53.828Z,66.92
2023-05-20T19:00:21.473Z,66.27
2023-05-20T19:02:50.377Z,68.61
2023-05-20T19:05:18.029Z,68.41
2023-05-20T19:07:45.645Z,67.03
2023-05-20T19:10:13.123Z,67.95
2023-05-20T19:12:40.715Z,68.11
2023-05-20T19:15:09.490Z,68.63
2023-05-20T19:17:37.007Z,67.56
2023-05-20T19:20:07.694Z,68.35
2023-05-20T19:22:35.785Z,68.59
2023-05-20T19:25:03.685Z,69.95
2023-05-20T19:27:31.221Z,68.76
2023-05-20T19:29:58.698Z,67.75
2023-05-20T19:32:28.770Z,68.50
2023-05-20T19:34:59.098Z,69.93
2023-05-20T19:37:32.165Z,70.76
2023-05-20T19:39:59.662Z,71.41
2023-05-20T19:42:27.161Z,71.30
2023-05-20T19:44:57.424Z,72.16
2023-05-20T19:47:25.041Z,71.10
2023-05-20T19:49:52.658Z,70.70
2023-05-20T19:52:22.429Z,70.04
2023-05-20T19:54:51.310Z,71.05
2023-05-20T19:57:19.014Z,69.52
2023-05-20T19:59:46.775Z,70.55
2023-05-20T20:02:14.861Z,70.16
2023-05-20T20:04:42.897Z,70.96
2023-05-20T20:07:10.939Z,71.28
2023-05-20T20:09:38.418Z,70.77
2023-05-20T20:12:09.317Z,70.28
2023-05-20T20:14:36.921Z,70.47
2023-05-20T20:17:06.166Z,70.75
2023-05-20T20:19:35.281Z,70.27
2023-05-20T20:22:03.101Z,70.48
2023-05-20T20:24:30.683Z,70.20
2023-05-20T20:26:58.309Z,71.83
2023-05-20T20:29:27.238Z,70.40
2023-05-20T20:31:55.033Z,70.21
2023-05-20T20:34:22.537Z,69.91
2023-05-20T20:36:50.698Z,71.27
2023-05-20T20:39:19.863Z,69.85
2023-05-20T20:41:50.381Z,71.16
2023-05-20T20:44:21.050Z,71.07
2023-05-20T20:46:51.357Z,70.35
2023-05-20T20:49:19.605Z,71.09
2023-05-20T20:51:47.379Z,70.99
2023-05-20T20:54:15.340Z,71.29
2023-05-20T20:56:45.336Z,71.76
2023-05-20T20:59:13.605Z,70.42
2023-05-20T21:01:41.791Z,71.49
2023-05-20T21:04:13.381Z,71.61
2023-05-20T21:06:41.956Z,71.63
2023-05-20T21:09:11.542Z,70.77
2023-05-20T21:11:42.271Z,70.64
2023-05-20T21:14:10.044Z,71.28
2023-05-20T21:16:37.944Z,72.47
2023-05-20T21:19:06.067Z,72.10
2023-05-20T21:21:34.992Z,72.67
2023-05-20T21:24:02.507Z,72.97
2023-05-20T21:26:29.987Z,73.28
2023-05-20T21:28:57.437Z,74.79
2023-05-20T21:31:24.972Z,73.41
2023-05-20T21:33:52.591Z,73.80
2023-05-20T21:36:22.136Z,73.30
2023-05-20T21:38:50.903Z,73.95
2023-05-20T21:41:18.368Z,75.11
2023-05-20T21:43:45.820Z,73.63
2023-05-20T21:46:13.596Z,72.86
2023-05-20T21:48:41.124Z,70.85
2023-05-20T21:51:08.582Z,74.03
2023-05-20T21:53:36.090Z,75.13
2023-05-20T21:56:05.455Z,73.12
2023-05-20T21:58:33.212Z,73.20
2023-05-20T22:01:00.733Z,75.12
2023-05-20T22:03:28.399Z,75.60
2023-05-20T22:05:56.191Z,74.82
2023-05-20T22:08:23.689Z,73.57
2023-05-20T22:10:51.147Z,75.88
2023-05-20T22:13:20.597Z,75.98
2023-05-20T22:15:48.093Z,74.03
2023-05-20T22:18:15.692Z,74.94
2023-05-20T22:20:43.741Z,73.35
2023-05-20T22:23:11.247Z,73.70
2023-05-20T22:25:38.722Z,71.61
2023-05-20T22:28:06.196Z,73.17
2023-05-20T22:30:35.576Z,73.79
2023-05-20T22:33:03.070Z,74.07
2023-05-20T22:35:30.608Z,74.75
2023-05-20T22:38:00.159Z,74.50
2023-05-20T22:40:27.772Z,73.54
2023-05-20T22:42:55.246Z,73.31
2023-05-20T22:45:22.716Z,74.58
2023-05-20T22:47:51.688Z,74.37
2023-05-20T22:50:19.214Z,75.03
2023-05-20T22:52:46.675Z,73.99
2023-05-20T22:55:14.090Z,74.74
2023-05-20T22:57:41.578Z,74.31
2023-05-20T23:00:10.900Z,74.69
2023-05-20T23:02:41.478Z,74.13
2023-05-20T23:05:11.819Z,76.32
2023-05-20T23:07:39.418Z,74.04
2023-05-20T23:10:07.558Z,74.37
2023-05-20T23:12:35.001Z,74.07
2023-05-20T23:15:02.627Z,74.66
2023-05-20T23:17:30.216Z,77.00
2023-05-20T23:19:57.733Z,76.21
2023-05-20T23:22:26.794Z,75.85
2023-05-20T23:24:54.258Z,74.59
2023-05-20T23:27:21.717Z,76.72
2023-05-20T23:29:49.186Z,75.32
2023-05-20T23:32:16.612Z,74.10
2023-05-20T23:34:46.474Z,75.30
2023-05-20T23:37:14.226Z,76.03
2023-05-20T23:39:42.978Z,77.05
2023-05-20T23:42:10.474Z,76.22
2023-05-20T23:44:37.942Z,78.09
2023-05-20T23:47:07.545Z,76.95
2023-05-20T23:49:35.372Z,77.79
2023-05-20T23:52:03.439Z,79.29
2023-05-20T23:54:34.261Z,78.41
2023-05-20T23:57:03.235Z,77.52
2023-05-20T23:59:30.977Z,80.06
